createdAt,value
2022-08-26T00:01:29.062Z,21.93
2022-08-26T00:03:56.995Z,21.93
2022-08-26T00:06:25.160Z,21.93
2022-08-26T00:08:52.104Z,21.92
2022-08-26T00:11:26.254Z,21.94
2022-08-26T00:13:57.717Z,21.88
2022-08-26T00:16:27.043Z,21.79
2022-08-26T00:18:54.390Z,21.75
2022-08-26T00:21:21.416Z,21.70
2022-08-26T00:23:48.789Z,21.67
2022-08-26T00:26:15.822Z,21.61
2022-08-26T00:28:42.990Z,21.56
2022-08-26T00:31:11.343Z,21.52
2022-08-26T00:33:39.908Z,21.40
2022-08-26T00:36:08.127Z,21.43
2022-08-26T00:38:46.787Z,21.47
2022-08-26T00:41:14.469Z,21.45
2022-08-26T00:43:47.349Z,21.45
2022-08-26T00:46:19.842Z,21.47
2022-08-26T00:48:50.263Z,21.52
2022-08-26T00:51:21.076Z,21.51
2022-08-26T00:53:57.846Z,21.52
2022-08-26T00:56:33.870Z,21.50
2022-08-26T00:59:05.210Z,21.47
2022-08-26T01:01:32.738Z,21.45
2022-08-26T01:04:00.620Z,21.41
2022-08-26T01:06:27.864Z,21.39
2022-08-26T01:08:54.987Z,21.36
2022-08-26T01:11:22.208Z,21.34
2022-08-26T01:13:54.230Z,21.30
2022-08-26T01:16:22.774Z,21.29
2022-08-26T01:18:49.678Z,21.31
2022-08-26T01:21:42.528Z,21.30
2022-08-26T01:24:11.024Z,21.28
2022-08-26T01:26:42.577Z,21.25
2022-08-26T01:29:14.948Z,21.18
2022-08-26T01:31:55.906Z,21.14
2022-08-26T01:34:35.180Z,21.17
2022-08-26T01:37:15.798Z,21.12
2022-08-26T01:39:47.301Z,21.04
2022-08-26T01:42:15.742Z,21.02
2022-08-26T01:44:53.264Z,21.01
2022-08-26T01:47:22.829Z,20.97
2022-08-26T01:49:54.210Z,20.92
2022-08-26T01:52:27.621Z,20.87
2022-08-26T01:54:57.699Z,20.83
2022-08-26T01:57:26.110Z,20.80
2022-08-26T01:59:57.572Z,20.80
2022-08-26T02:02:24.660Z,20.82
2022-08-26T02:04:59.929Z,20.87
2022-08-26T02:07:28.198Z,20.91
2022-08-26T02:09:55.376Z,20.92
2022-08-26T02:12:23.192Z,20.92
2022-08-26T02:14:53.846Z,20.91
2022-08-26T02:17:29.411Z,20.84
2022-08-26T02:19:58.085Z,20.80
2022-08-26T02:22:25.317Z,20.76
2022-08-26T02:24:59.068Z,20.72
2022-08-26T02:27:32.439Z,20.67
2022-08-26T02:30:20.917Z,20.63
2022-08-26T02:32:49.577Z,20.57
2022-08-26T02:35:18.223Z,20.58
2022-08-26T02:37:49.546Z,20.55
2022-08-26T02:40:20.322Z,20.55
2022-08-26T02:42:49.185Z,20.52
2022-08-26T02:45:16.400Z,20.50
2022-08-26T02:47:51.508Z,20.49
2022-08-26T02:50:19.898Z,20.48
2022-08-26T02:52:46.957Z,20.45
2022-08-26T02:55:14.360Z,20.41
2022-08-26T02:57:41.361Z,20.47
2022-08-26T03:00:10.177Z,20.49
2022-08-26T03:02:37.331Z,20.50
2022-08-26T03:05:04.960Z,20.52
2022-08-26T03:07:31.805Z,20.56
2022-08-26T03:09:58.890Z,20.57
2022-08-26T03:12:25.994Z,20.57
2022-08-26T03:14:53.163Z,20.60
2022-08-26T03:17:20.145Z,20.60
2022-08-26T03:19:49.011Z,20.64
2022-08-26T03:22:19.856Z,20.56
2022-08-26T03:24:47.490Z,20.65
2022-08-26T03:27:14.538Z,20.71
2022-08-26T03:29:41.808Z,20.78
2022-08-26T03:32:09.323Z,20.84
2022-08-26T03:34:37.733Z,20.92
2022-08-26T03:37:05.622Z,21.01
2022-08-26T03:39:32.671Z,21.11
2022-08-26T03:42:00.327Z,21.21
2022-08-26T03:44:27.152Z,21.29
2022-08-26T03:46:54.251Z,21.36
2022-08-26T03:49:21.406Z,21.47
2022-08-26T03:51:48.385Z,21.58
2022-08-26T03:54:15.348Z,21.65
2022-08-26T03:56:42.209Z,21.71
2022-08-26T03:59:09.155Z,21.71
2022-08-26T04:01:36.525Z,21.77
2022-08-26T04:04:04.147Z,21.88
2022-08-26T04:06:36.661Z,21.96
2022-08-26T04:09:12.889Z,22.05
2022-08-26T04:11:40.721Z,22.18
2022-08-26T04:14:11.408Z,22.31
2022-08-26T04:16:38.355Z,22.43
2022-08-26T04:19:06.090Z,22.51
2022-08-26T04:21:32.971Z,22.58
2022-08-26T04:23:59.977Z,22.67
2022-08-26T04:26:33.285Z,22.78
2022-08-26T04:29:01.675Z,22.88
2022-08-26T04:31:28.589Z,23.00
2022-08-26T04:33:58.851Z,23.10
2022-08-26T04:36:25.879Z,23.22
2022-08-26T04:38:52.939Z,23.33
2022-08-26T04:41:21.052Z,23.41
2022-08-26T04:43:48.715Z,23.48
2022-08-26T04:46:19.126Z,23.58
2022-08-26T04:48:46.349Z,23.65
2022-08-26T04:51:13.242Z,23.76
2022-08-26T04:53:40.334Z,23.89
2022-08-26T04:56:07.498Z,24.03
2022-08-26T04:58:35.326Z,24.13
2022-08-26T05:01:02.403Z,24.22
2022-08-26T05:03:30.237Z,24.28
2022-08-26T05:05:58.436Z,24.40
2022-08-26T05:08:25.939Z,24.52
2022-08-26T05:10:54.920Z,24.63
2022-08-26T05:13:24.961Z,24.79
2022-08-26T05:15:52.637Z,24.93
2022-08-26T05:18:21.142Z,25.02
2022-08-26T05:20:50.575Z,25.12
2022-08-26T05:23:18.773Z,25.25
2022-08-26T05:25:48.232Z,25.29
2022-08-26T05:28:18.727Z,25.36
2022-08-26T05:30:46.224Z,25.46
2022-08-26T05:33:13.412Z,25.62
2022-08-26T05:35:41.177Z,25.78
2022-08-26T05:38:12.767Z,25.94
2022-08-26T05:40:43.668Z,26.13
2022-08-26T05:43:11.722Z,26.27
2022-08-26T05:45:45.269Z,26.37
2022-08-26T05:48:15.023Z,26.45
2022-08-26T05:50:48.726Z,26.58
2022-08-26T05:53:18.442Z,26.76
2022-08-26T05:55:48.906Z,26.84
2022-08-26T05:58:17.497Z,26.99
2022-08-26T06:00:44.895Z,27.13
2022-08-26T06:03:11.852Z,27.25
2022-08-26T06:05:40.528Z,27.41
2022-08-26T06:08:08.175Z,27.58
2022-08-26T06:10:43.084Z,27.63
2022-08-26T06:13:11.854Z,27.61
2022-08-26T06:15:44.594Z,27.72
2022-08-26T06:18:12.582Z,27.74
2022-08-26T06:20:39.503Z,27.80
2022-08-26T06:23:09.397Z,27.86
2022-08-26T06:25:40.890Z,28.05
2022-08-26T06:28:08.338Z,28.13
2022-08-26T06:30:40.498Z,28.30
2022-08-26T06:33:08.959Z,28.46
2022-08-26T06:35:37.991Z,28.55
2022-08-26T06:38:04.967Z,28.64
2022-08-26T06:40:32.531Z,28.76
2022-08-26T06:42:59.468Z,28.97
2022-08-26T06:45:26.817Z,29.17
2022-08-26T06:47:53.689Z,29.40
2022-08-26T06:50:21.406Z,29.60
2022-08-26T06:52:49.267Z,29.80
2022-08-26T06:55:16.330Z,30.00
2022-08-26T06:57:45.125Z,30.17
2022-08-26T07:00:13.395Z,30.29
2022-08-26T07:02:41.135Z,30.38
2022-08-26T07:05:13.918Z,30.42
2022-08-26T07:07:40.878Z,30.45
2022-08-26T07:10:10.464Z,30.50
2022-08-26T07:12:37.313Z,30.62
2022-08-26T07:15:04.831Z,30.73
2022-08-26T07:17:31.700Z,30.92
2022-08-26T07:20:00.895Z,31.08
2022-08-26T07:22:27.797Z,31.21
2022-08-26T07:24:55.537Z,31.32
2022-08-26T07:27:22.689Z,31.45
2022-08-26T07:29:49.838Z,31.45
2022-08-26T07:32:20.229Z,31.38
2022-08-26T07:34:50.144Z,31.34
2022-08-26T07:37:17.662Z,31.53
2022-08-26T07:39:44.730Z,31.56
2022-08-26T07:42:14.419Z,31.64
2022-08-26T07:44:43.130Z,31.56
2022-08-26T07:47:25.040Z,31.56
2022-08-26T07:49:54.969Z,31.52
2022-08-26T07:52:26.186Z,31.47
2022-08-26T07:54:54.114Z,31.44
2022-08-26T07:57:20.993Z,31.50
2022-08-26T07:59:47.944Z,31.66
2022-08-26T08:02:14.746Z,31.81
2022-08-26T08:04:43.290Z,31.85
2022-08-26T08:07:11.561Z,31.87
2022-08-26T08:09:40.774Z,31.98
2022-08-26T08:12:08.066Z,31.99
2022-08-26T08:14:42.031Z,31.90
2022-08-26T08:17:09.161Z,31.82
2022-08-26T08:19:36.532Z,31.82
2022-08-26T08:22:04.010Z,31.90
2022-08-26T08:24:34.688Z,31.84
2022-08-26T08:27:02.216Z,31.86
2022-08-26T08:29:29.748Z,31.92
2022-08-26T08:31:58.754Z,31.95
2022-08-26T08:34:28.463Z,31.96
2022-08-26T08:36:56.778Z,31.94
2022-08-26T08:39:24.288Z,31.90
2022-08-26T08:42:09.185Z,31.85
2022-08-26T08:44:44.737Z,31.85
2022-08-26T08:47:31.183Z,31.79
2022-08-26T08:50:03.408Z,31.71
2022-08-26T08:52:36.364Z,31.71
2022-08-26T08:55:11.058Z,31.43
2022-08-26T08:57:48.594Z,31.33
2022-08-26T09:00:20.949Z,31.23
2022-08-26T09:03:10.502Z,31.38
2022-08-26T09:05:46.676Z,31.25
2022-08-26T09:08:22.261Z,31.10
2022-08-26T09:10:59.334Z,31.04
2022-08-26T09:13:27.630Z,31.12
2022-08-26T09:16:10.368Z,31.20
2022-08-26T09:18:46.809Z,31.27
2022-08-26T09:21:16.307Z,31.32
2022-08-26T09:23:49.462Z,31.43
2022-08-26T09:26:31.292Z,31.55
2022-08-26T09:29:02.812Z,31.63
2022-08-26T09:31:35.802Z,31.61
2022-08-26T09:34:08.474Z,31.58
2022-08-26T09:36:42.399Z,31.55
2022-08-26T09:39:34.051Z,31.50
2022-08-26T09:42:24.339Z,31.49
2022-08-26T09:45:02.467Z,31.55
2022-08-26T09:47:34.371Z,31.61
2022-08-26T09:50:19.001Z,31.57
2022-08-26T09:52:45.970Z,31.55
2022-08-26T09:55:20.684Z,31.43
2022-08-26T09:57:51.458Z,31.46
2022-08-26T10:00:35.012Z,31.41
2022-08-26T10:03:25.960Z,31.31
2022-08-26T10:06:06.396Z,31.12
2022-08-26T10:08:47.500Z,30.95
2022-08-26T10:11:41.869Z,30.98
2022-08-26T10:14:20.232Z,30.90
2022-08-26T10:16:47.179Z,30.86
2022-08-26T10:19:19.533Z,30.82
2022-08-26T10:22:06.122Z,30.70
2022-08-26T10:24:43.085Z,30.83
2022-08-26T10:27:35.156Z,30.92
2022-08-26T10:30:10.600Z,31.02
2022-08-26T10:32:41.736Z,31.18
2022-08-26T10:35:12.587Z,31.24
2022-08-26T10:37:48.875Z,31.39
2022-08-26T10:40:46.593Z,31.47
2022-08-26T10:43:20.431Z,31.44
2022-08-26T10:45:57.311Z,31.37
2022-08-26T10:48:39.327Z,31.32
2022-08-26T10:51:06.846Z,31.27
2022-08-26T10:54:04.836Z,31.23
2022-08-26T10:56:57.570Z,31.14
2022-08-26T10:59:34.916Z,31.10
2022-08-26T11:02:08.907Z,31.08
2022-08-26T11:05:10.218Z,31.06
2022-08-26T11:07:45.780Z,31.04
2022-08-26T11:10:21.682Z,31.21
2022-08-26T11:12:56.088Z,31.37
2022-08-26T11:15:26.162Z,31.49
2022-08-26T11:17:53.318Z,31.57
2022-08-26T11:20:23.744Z,31.63
2022-08-26T11:22:53.321Z,31.64
2022-08-26T11:25:20.779Z,31.79
2022-08-26T11:27:55.376Z,31.80
2022-08-26T11:30:22.178Z,31.78
2022-08-26T11:32:54.812Z,31.76
2022-08-26T11:35:21.856Z,31.79
2022-08-26T11:37:58.661Z,31.82
2022-08-26T11:40:32.892Z,31.83
2022-08-26T11:43:07.999Z,31.87
2022-08-26T11:45:43.451Z,32.01
2022-08-26T11:48:34.390Z,32.16
2022-08-26T11:51:21.076Z,32.18
2022-08-26T11:53:50.267Z,32.11
2022-08-26T11:56:26.677Z,32.02
2022-08-26T11:58:58.439Z,31.98
2022-08-26T12:01:34.140Z,31.86
2022-08-26T12:04:01.457Z,31.71
2022-08-26T12:06:45.933Z,31.62
2022-08-26T12:09:31.425Z,31.56
2022-08-26T12:12:29.176Z,31.49
2022-08-26T12:15:12.072Z,31.54
2022-08-26T12:17:39.934Z,31.73
2022-08-26T12:20:28.399Z,31.83
2022-08-26T12:22:55.350Z,31.80
2022-08-26T12:25:23.975Z,31.76
2022-08-26T12:27:53.765Z,31.70
2022-08-26T12:30:26.209Z,31.73
2022-08-26T12:33:17.999Z,31.79
2022-08-26T12:35:56.263Z,31.95
2022-08-26T12:38:25.753Z,31.90
2022-08-26T12:40:53.363Z,31.80
2022-08-26T12:43:40.202Z,31.82
2022-08-26T12:46:10.235Z,31.80
2022-08-26T12:48:40.389Z,31.86
2022-08-26T12:51:15.304Z,32.00
2022-08-26T12:53:44.204Z,32.17
2022-08-26T12:56:24.916Z,32.27
2022-08-26T12:59:07.947Z,32.34
2022-08-26T13:01:42.182Z,32.36
2022-08-26T13:04:34.997Z,32.26
2022-08-26T13:07:25.112Z,32.38
2022-08-26T13:09:54.863Z,32.35
2022-08-26T13:12:27.941Z,32.37
2022-08-26T13:14:54.891Z,32.37
2022-08-26T13:17:21.835Z,32.33
2022-08-26T13:19:49.044Z,32.25
2022-08-26T13:22:19.119Z,32.02
2022-08-26T13:24:46.309Z,32.04
2022-08-26T13:27:15.141Z,32.12
2022-08-26T13:29:42.245Z,32.06
2022-08-26T13:32:09.969Z,32.06
2022-08-26T13:34:38.443Z,31.94
2022-08-26T13:37:06.270Z,31.91
2022-08-26T13:39:33.184Z,31.98
2022-08-26T13:42:00.138Z,31.99
2022-08-26T13:44:27.082Z,31.99
2022-08-26T13:46:54.160Z,31.97
2022-08-26T13:49:21.213Z,32.13
2022-08-26T13:51:48.249Z,31.81
2022-08-26T13:54:15.187Z,31.45
2022-08-26T13:56:42.169Z,31.22
2022-08-26T13:59:09.262Z,31.07
2022-08-26T14:01:36.246Z,30.96
2022-08-26T14:04:04.369Z,30.87
2022-08-26T14:06:31.430Z,30.78
2022-08-26T14:08:58.537Z,30.77
2022-08-26T14:11:25.650Z,30.67
2022-08-26T14:13:52.551Z,31.00
2022-08-26T14:16:33.960Z,30.78
2022-08-26T14:19:02.195Z,30.69
2022-08-26T14:21:35.785Z,30.83
2022-08-26T14:24:03.669Z,31.10
2022-08-26T14:26:30.615Z,31.00
2022-08-26T14:28:59.220Z,31.06
2022-08-26T14:31:27.758Z,31.06
2022-08-26T14:33:58.772Z,31.20
2022-08-26T14:36:25.776Z,31.17
2022-08-26T14:38:53.100Z,30.94
2022-08-26T14:41:20.842Z,30.86
2022-08-26T14:43:54.944Z,30.87
2022-08-26T14:46:21.802Z,30.85
2022-08-26T14:48:48.665Z,30.74
2022-08-26T14:51:15.688Z,30.75
2022-08-26T14:53:42.595Z,30.78
2022-08-26T14:56:12.640Z,30.76
2022-08-26T14:58:44.447Z,30.74
2022-08-26T15:01:11.336Z,30.66
2022-08-26T15:03:38.275Z,30.55
2022-08-26T15:06:05.464Z,30.50
2022-08-26T15:08:32.779Z,30.33
2022-08-26T15:10:59.789Z,30.20
2022-08-26T15:13:26.832Z,30.19
2022-08-26T15:15:53.873Z,30.11
2022-08-26T15:18:20.990Z,30.05
2022-08-26T15:20:48.768Z,30.02
2022-08-26T15:23:16.304Z,29.94
2022-08-26T15:25:45.988Z,29.87
2022-08-26T15:28:12.861Z,29.80
2022-08-26T15:30:39.839Z,29.77
2022-08-26T15:33:06.757Z,29.70
2022-08-26T15:35:42.939Z,29.63
2022-08-26T15:38:10.979Z,29.58
2022-08-26T15:40:38.440Z,29.53
2022-08-26T15:43:18.540Z,29.49
2022-08-26T15:45:54.008Z,29.45
2022-08-26T15:48:22.641Z,29.42
2022-08-26T15:51:18.469Z,29.38
2022-08-26T15:53:45.471Z,29.30
2022-08-26T15:56:12.681Z,29.29
2022-08-26T15:58:39.538Z,29.24
2022-08-26T16:01:07.875Z,29.18
2022-08-26T16:03:35.420Z,29.11
2022-08-26T16:06:02.372Z,29.06
2022-08-26T16:08:29.336Z,29.02
2022-08-26T16:11:04.025Z,28.94
2022-08-26T16:13:39.625Z,28.86
2022-08-26T16:16:08.403Z,28.79
2022-08-26T16:18:35.485Z,28.73
2022-08-26T16:21:13.604Z,28.67
2022-08-26T16:23:45.033Z,28.59
2022-08-26T16:26:18.807Z,28.53
2022-08-26T16:28:45.770Z,28.47
2022-08-26T16:31:13.603Z,28.40
2022-08-26T16:33:40.570Z,28.34
2022-08-26T16:36:08.538Z,28.28
2022-08-26T16:38:36.719Z,28.23
2022-08-26T16:41:04.270Z,28.16
2022-08-26T16:43:31.614Z,28.12
2022-08-26T16:45:58.552Z,27.95
2022-08-26T16:48:25.518Z,28.02
2022-08-26T16:50:52.536Z,27.97
2022-08-26T16:53:19.564Z,27.83
2022-08-26T16:55:48.404Z,27.74
2022-08-26T16:58:15.644Z,27.63
2022-08-26T17:00:43.136Z,27.49
2022-08-26T17:03:10.217Z,27.41
2022-08-26T17:05:37.599Z,27.32
2022-08-26T17:08:05.646Z,27.24
2022-08-26T17:10:33.527Z,27.16
2022-08-26T17:13:01.040Z,27.07
2022-08-26T17:15:28.230Z,26.98
2022-08-26T17:17:55.471Z,26.91
2022-08-26T17:20:24.082Z,26.83
2022-08-26T17:22:53.681Z,26.74
2022-08-26T17:25:32.121Z,26.67
2022-08-26T17:27:59.497Z,26.59
2022-08-26T17:30:27.054Z,26.52
2022-08-26T17:32:57.009Z,26.48
2022-08-26T17:35:24.852Z,26.42
2022-08-26T17:37:52.090Z,26.39
2022-08-26T17:40:22.371Z,26.31
2022-08-26T17:42:49.467Z,26.30
2022-08-26T17:45:17.042Z,26.25
2022-08-26T17:47:44.879Z,26.24
2022-08-26T17:50:15.099Z,26.21
2022-08-26T17:52:42.755Z,26.15
2022-08-26T17:55:12.041Z,26.12
2022-08-26T17:57:40.796Z,26.07
2022-08-26T18:00:13.629Z,26.02
2022-08-26T18:02:42.256Z,25.94
2022-08-26T18:05:10.214Z,25.87
2022-08-26T18:07:43.770Z,25.80
2022-08-26T18:10:13.450Z,25.71
2022-08-26T18:12:40.877Z,25.65
2022-08-26T18:15:08.879Z,25.50
2022-08-26T18:17:35.838Z,25.51
2022-08-26T18:20:02.972Z,25.44
2022-08-26T18:22:30.141Z,25.39
2022-08-26T18:24:59.479Z,25.33
2022-08-26T18:27:26.714Z,25.23
2022-08-26T18:29:53.504Z,25.19
2022-08-26T18:32:20.310Z,25.13
2022-08-26T18:34:47.225Z,25.07
2022-08-26T18:39:45.705Z,24.87
2022-08-26T18:42:12.563Z,24.88
2022-08-26T18:44:39.338Z,24.80
2022-08-26T18:47:06.563Z,24.76
2022-08-26T18:49:33.471Z,24.71
2022-08-26T18:52:00.440Z,24.65
2022-08-26T18:54:27.636Z,24.59
2022-08-26T18:56:54.803Z,24.55
2022-08-26T18:59:27.948Z,24.53
2022-08-26T19:01:57.449Z,24.48
2022-08-26T19:04:24.514Z,24.45
2022-08-26T19:06:52.804Z,24.41
2022-08-26T19:09:21.061Z,24.38
2022-08-26T19:11:49.792Z,24.32
2022-08-26T19:14:17.167Z,24.23
2022-08-26T19:16:46.887Z,24.20
2022-08-26T19:19:15.176Z,24.13
2022-08-26T19:21:42.458Z,24.09
2022-08-26T19:24:11.966Z,24.02
2022-08-26T19:26:38.908Z,23.98
2022-08-26T19:29:06.226Z,23.94
2022-08-26T19:31:33.171Z,23.90
2022-08-26T19:34:00.692Z,23.84
2022-08-26T19:36:28.657Z,23.81
2022-08-26T19:38:55.877Z,23.76
2022-08-26T19:41:36.490Z,23.71
2022-08-26T19:44:09.336Z,23.68
2022-08-26T19:49:09.088Z,23.50
2022-08-26T19:51:36.509Z,23.56
2022-08-26T19:54:03.812Z,23.52
2022-08-26T19:56:30.768Z,23.49
2022-08-26T19:58:57.677Z,23.47
2022-08-26T20:01:24.731Z,23.39
2022-08-26T20:03:51.776Z,23.36
2022-08-26T20:06:19.266Z,23.32
2022-08-26T20:08:46.372Z,23.28
2022-08-26T20:11:16.460Z,23.22
2022-08-26T20:13:44.443Z,23.16
2022-08-26T20:16:11.908Z,23.12
2022-08-26T20:18:40.953Z,23.07
2022-08-26T20:21:08.011Z,23.03
2022-08-26T20:23:34.952Z,23.01
2022-08-26T20:26:01.841Z,22.99
2022-08-26T20:28:30.348Z,22.95
2022-08-26T20:30:57.340Z,22.92
2022-08-26T20:33:24.289Z,22.91
2022-08-26T20:35:51.424Z,22.90
2022-08-26T20:38:21.449Z,22.87
2022-08-26T20:40:49.027Z,22.83
2022-08-26T20:43:16.033Z,22.80
2022-08-26T20:45:43.093Z,22.80
2022-08-26T20:48:10.173Z,22.79
2022-08-26T20:50:37.336Z,22.77
2022-08-26T20:53:04.223Z,22.77
2022-08-26T20:55:31.487Z,22.75
2022-08-26T20:57:58.441Z,22.76
2022-08-26T21:00:26.969Z,22.74
2022-08-26T21:02:56.064Z,22.72
2022-08-26T21:05:23.614Z,22.70
2022-08-26T21:07:50.505Z,22.58
2022-08-26T21:10:17.892Z,22.67
2022-08-26T21:12:45.439Z,22.64
2022-08-26T21:15:12.321Z,22.62
2022-08-26T21:17:39.209Z,22.62
2022-08-26T21:20:06.593Z,22.60
2022-08-26T21:22:33.468Z,22.59
2022-08-26T21:25:00.547Z,22.56
2022-08-26T21:27:27.976Z,22.43
2022-08-26T21:29:55.290Z,22.57
2022-08-26T21:32:22.311Z,22.55
2022-08-26T21:34:49.282Z,22.56
2022-08-26T21:37:16.742Z,22.55
2022-08-26T21:39:44.207Z,22.45
2022-08-26T21:42:11.140Z,22.56
2022-08-26T21:44:38.171Z,22.56
2022-08-26T21:47:05.402Z,22.57
2022-08-26T21:49:32.324Z,22.55
2022-08-26T21:51:59.693Z,22.53
2022-08-26T21:54:26.690Z,22.52
2022-08-26T21:56:53.598Z,22.49
2022-08-26T21:59:20.576Z,22.50
2022-08-26T22:01:48.115Z,22.51
2022-08-26T22:04:16.045Z,22.48
2022-08-26T22:06:45.869Z,22.47
2022-08-26T22:09:15.252Z,22.47
2022-08-26T22:11:42.602Z,22.43
2022-08-26T22:14:10.315Z,22.44
2022-08-26T22:16:38.355Z,22.47
2022-08-26T22:19:05.695Z,22.51
2022-08-26T22:21:32.883Z,22.50
2022-08-26T22:24:00.163Z,22.54
2022-08-26T22:26:30.577Z,22.59
2022-08-26T22:28:59.533Z,22.57
2022-08-26T22:31:37.812Z,22.63
2022-08-26T22:34:08.794Z,22.61
2022-08-26T22:36:43.749Z,22.57
2022-08-26T22:39:13.233Z,22.56
2022-08-26T22:41:40.832Z,22.52
2022-08-26T22:44:07.805Z,22.50
2022-08-26T22:46:35.806Z,22.50
2022-08-26T22:49:03.101Z,22.49
2022-08-26T22:51:30.348Z,22.51
2022-08-26T22:53:57.384Z,22.46
2022-08-26T22:56:24.280Z,22.43
2022-08-26T22:58:51.218Z,22.36
2022-08-26T23:01:18.347Z,22.35
2022-08-26T23:03:45.480Z,22.35
2022-08-26T23:06:12.488Z,22.29
2022-08-26T23:08:41.249Z,22.28
2022-08-26T23:11:10.603Z,22.26
2022-08-26T23:13:38.518Z,22.28
2022-08-26T23:16:08.784Z,22.31
2022-08-26T23:18:36.631Z,22.26
2022-08-26T23:21:03.713Z,22.21
2022-08-26T23:23:30.819Z,22.16
2022-08-26T23:25:57.793Z,22.08
2022-08-26T23:28:25.170Z,22.09
2022-08-26T23:30:52.502Z,22.10
2022-08-26T23:33:19.555Z,22.07
2022-08-26T23:35:46.383Z,22.05
2022-08-26T23:38:14.107Z,22.01
2022-08-26T23:40:41.715Z,21.99
2022-08-26T23:43:10.518Z,21.98
2022-08-26T23:45:37.947Z,21.97
2022-08-26T23:48:05.530Z,21.93
2022-08-26T23:50:32.841Z,21.93
2022-08-26T23:52:59.943Z,21.89
2022-08-26T23:55:27.234Z,21.88
2022-08-26T23:57:54.328Z,21.87
